Kimper, KY

10:15 PM EDT em 22 de Setembro de 2014 (GMT -0400)
Carroll | Change Station
CLOSE
Current Station
Aeroporto
Location: Jackson,
Altitude: 1381 ft
Estações Meteorológicas Próximas

Elev 1381 ft 37.59 °N, 83.31 °W | Updated 22 minutes ago

Céu Limpo
Céu Limpo
58 °F
Aparente 58 °F
N
4
Vento Variável Vento de NNE

Hoje
Máxima -- | Mínima -- °F
--% Possibilidade de Precip.
Ontem
Máxima -- | Mínima -- °F
Precip. -- pol
7:17 AM 7:26 PM
Quarto minguante, 1% visible
Pressão 30.24 pol
Visibilidade 10.0 milhas
Nuvens Céu Limpo
Ponto de Orvalho 45 °F
Humidade 62%
Chuva 0.00 pol
Altura de Neve Não disponível
UV 0 em vez de 12
Pólen 4.20 em vez de 12
Qualidade do Ar Não disponível
Flu Activity Não disponível
METAR KJKL 230153Z AUTO 02003KT 10SM CLR 14/07 A3025 RMK AO2 SLP238 T01440072

More Conditions Fewer Conditions

Pressão 30.24 pol
Visibilidade 10.0 milhas
Nuvens Céu Limpo
Ponto de Orvalho 45 °F
Humidade 62%
Chuva 0.00 pol
Altura de Neve Não disponível
UV 0 em vez de 12
Pólen 4.20 em vez de 12
Qualidade do Ar Não disponível
Flu Activity Não disponível
METAR KJKL 230153Z AUTO 02003KT 10SM CLR 14/07 A3025 RMK AO2 SLP238 T01440072

More Conditions Fewer Conditions

10-Day Weather Forecast

Almanac

Astronomia

Sep. 22, 2014 Nascer Pôr
Hora atual 07:17 EDT 19:26 EDT
Crepúsculo civil 06:50 EDT 19:52 EDT
Crepúsculo náutico 06:20 EDT 20:22 EDT
Crepúsculo astronómico 05:49 EDT 20:53 EDT
Lua 05:45 EDT (9/22) 18:32 EDT (9/22)
Comprimento da luz visível 13h 01m
Duração do Dia
12h 09m
Tomorrow will be 2m 24s shorter.
Quarto minguante, 1% of the Moon is Illuminated
Hoje
Quarto minguante
Set 24
Nova
Out 1
Quarto crescente
Out 8
Lua cheia
Out 15
Quarto minguante

Extremos de Hoje

situação na parte mais alta situação na parte mais baixa

Community

WunderPhotos

Upload Photos

1,755,587 fotografias inseridas!

Nearby

Altura da Neve

Estação altura Altitude
Não há relatos de neve recente.

Actividade Sísmisca

Cidade Distância Mag. Hora & Data
Não há notícias de atividade sísmica recente perto de si.
Mínima magnitude apresentada é 2.5.

Temperaturas das Águas Costeiras

Local Temperatura
Não há estações a reportar dados

Estações Meteorológicas Próximas